createdAt,value
2018-07-17T00:01:33.758Z,96.40
2018-07-17T00:04:01.538Z,98.30
2018-07-17T00:06:29.214Z,99.10
2018-07-17T00:08:57.002Z,99.90
2018-07-17T00:11:24.586Z,99.90
2018-07-17T00:13:52.271Z,99.90
2018-07-17T00:16:19.983Z,99.90
2018-07-17T00:18:47.782Z,99.90
2018-07-17T00:21:15.454Z,99.90
2018-07-17T00:23:43.032Z,99.90
2018-07-17T00:26:10.570Z,99.90
2018-07-17T00:28:38.164Z,99.90
2018-07-17T00:31:05.742Z,99.90
2018-07-17T00:33:33.308Z,99.90
2018-07-17T00:38:28.397Z,99.90
2018-07-17T00:40:56.016Z,99.90
2018-07-17T00:43:23.760Z,99.90
2018-07-17T00:45:51.304Z,99.90
2018-07-17T00:48:19.091Z,99.90
2018-07-17T00:50:46.645Z,99.90
2018-07-17T00:53:14.213Z,99.90
2018-07-17T00:55:41.788Z,99.90
2018-07-17T00:58:09.370Z,99.90
2018-07-17T01:00:42.537Z,99.90
2018-07-17T01:03:15.844Z,99.90
2018-07-17T01:05:55.223Z,99.90
2018-07-17T01:08:34.598Z,99.90
2018-07-17T01:11:13.709Z,99.90
2018-07-17T01:13:55.901Z,99.90
2018-07-17T01:16:29.603Z,99.90
2018-07-17T01:19:03.414Z,99.90
2018-07-17T01:21:31.051Z,99.90
2018-07-17T01:23:58.587Z,99.90
2018-07-17T01:26:26.174Z,99.90
2018-07-17T01:28:53.778Z,99.90
2018-07-17T01:31:21.566Z,99.90
2018-07-17T01:33:49.150Z,99.90
2018-07-17T01:36:16.807Z,99.90
2018-07-17T01:38:44.471Z,99.90
2018-07-17T01:41:12.167Z,99.90
2018-07-17T01:43:39.830Z,99.90
2018-07-17T01:46:07.365Z,99.90
2018-07-17T01:48:34.997Z,99.90
2018-07-17T01:51:02.767Z,99.90
2018-07-17T01:55:57.902Z,99.90
2018-07-17T01:58:25.515Z,99.90
2018-07-17T02:00:53.089Z,99.90
2018-07-17T02:03:20.981Z,99.90
2018-07-17T02:05:48.818Z,99.90
2018-07-17T02:08:16.330Z,99.90
2018-07-17T02:10:43.932Z,99.90
2018-07-17T02:13:11.525Z,99.90
2018-07-17T02:15:39.095Z,99.90
2018-07-17T02:18:06.830Z,99.90
2018-07-17T02:20:34.371Z,99.90
2018-07-17T02:23:01.957Z,99.90
2018-07-17T02:25:29.534Z,99.90
2018-07-17T02:27:57.114Z,99.90
2018-07-17T02:30:24.783Z,99.90
2018-07-17T02:32:52.508Z,99.90
2018-07-17T02:35:20.082Z,99.90
2018-07-17T02:37:47.668Z,99.90
2018-07-17T02:40:15.326Z,99.90
2018-07-17T02:42:43.097Z,99.90
2018-07-17T02:45:10.750Z,99.90
2018-07-17T02:47:38.374Z,99.90
2018-07-17T02:50:06.018Z,99.90
2018-07-17T02:52:33.618Z,99.90
2018-07-17T02:55:01.290Z,99.90
2018-07-17T02:57:29.443Z,99.90
2018-07-17T02:59:57.024Z,99.90
2018-07-17T03:02:24.800Z,99.90
2018-07-17T03:04:52.388Z,99.90
2018-07-17T03:07:20.352Z,99.90
2018-07-17T03:09:47.960Z,99.90
2018-07-17T03:12:15.582Z,99.90
2018-07-17T03:14:43.218Z,99.90
2018-07-17T03:17:11.074Z,99.90
2018-07-17T03:19:38.710Z,99.90
2018-07-17T03:22:06.381Z,99.90
2018-07-17T03:24:34.041Z,99.90
2018-07-17T03:27:01.585Z,99.90
2018-07-17T03:29:29.508Z,99.90
2018-07-17T03:31:57.100Z,99.90
2018-07-17T03:34:24.694Z,99.90
2018-07-17T03:36:52.608Z,99.90
2018-07-17T03:39:20.246Z,99.90
2018-07-17T03:41:47.831Z,99.90
2018-07-17T03:44:15.430Z,99.90
2018-07-17T03:46:43.099Z,99.90
2018-07-17T03:49:10.725Z,99.90
2018-07-17T03:51:38.317Z,99.90
2018-07-17T03:54:06.227Z,99.90
2018-07-17T03:56:33.829Z,99.90
2018-07-17T03:59:01.442Z,99.90
2018-07-17T04:01:29.081Z,99.90
2018-07-17T04:03:56.717Z,99.90
2018-07-17T04:06:24.330Z,99.90
2018-07-17T04:08:52.021Z,99.90
2018-07-17T04:11:19.814Z,99.90
2018-07-17T04:13:47.489Z,99.90
2018-07-17T04:16:15.121Z,99.90
2018-07-17T04:18:42.685Z,99.90
2018-07-17T04:21:10.233Z,99.90
2018-07-17T04:23:37.877Z,99.90
2018-07-17T04:26:05.479Z,99.90
2018-07-17T04:28:33.089Z,99.90
2018-07-17T04:31:00.663Z,99.90
2018-07-17T04:33:28.265Z,99.90
2018-07-17T04:35:55.835Z,99.90
2018-07-17T04:38:23.484Z,99.90
2018-07-17T04:40:51.047Z,99.90
2018-07-17T04:43:18.625Z,99.90
2018-07-17T04:45:46.218Z,99.90
2018-07-17T04:48:13.832Z,99.90
2018-07-17T04:50:41.398Z,99.90
2018-07-17T04:53:09.049Z,99.90
2018-07-17T04:55:36.776Z,99.90
2018-07-17T04:58:04.394Z,99.90
2018-07-17T05:00:32.020Z,99.90
2018-07-17T05:02:59.574Z,99.90
2018-07-17T05:05:27.129Z,99.90
2018-07-17T05:07:54.719Z,99.90
2018-07-17T05:10:22.309Z,99.90
2018-07-17T05:12:49.964Z,99.90
2018-07-17T05:15:17.643Z,99.90
2018-07-17T05:17:45.246Z,99.90
2018-07-17T05:20:12.910Z,95.10
2018-07-17T05:22:40.569Z,91.70
2018-07-17T05:25:08.380Z,86.10
2018-07-17T05:27:35.996Z,80.10
2018-07-17T05:30:04.141Z,77.80
2018-07-17T05:32:31.787Z,75.50
2018-07-17T05:34:59.392Z,73.90
2018-07-17T05:37:26.983Z,74.30
2018-07-17T05:39:54.558Z,71.70
2018-07-17T05:42:22.104Z,71.60
2018-07-17T05:44:49.804Z,71.90
2018-07-17T05:47:17.354Z,69.80
2018-07-17T05:49:44.913Z,70.30
2018-07-17T05:52:12.556Z,69.00
2018-07-17T05:57:07.732Z,70.50
2018-07-17T05:59:35.392Z,71.40
2018-07-17T06:02:03.078Z,72.60
2018-07-17T06:04:30.638Z,72.30
2018-07-17T06:09:25.840Z,72.00
2018-07-17T06:11:53.425Z,71.90
2018-07-17T06:14:21.148Z,71.60
2018-07-17T06:16:48.721Z,71.70
2018-07-17T06:19:16.321Z,70.70
2018-07-17T06:21:43.884Z,69.90
2018-07-17T06:26:39.027Z,71.50
2018-07-17T06:29:06.657Z,71.70
2018-07-17T06:31:34.239Z,71.00
2018-07-17T06:34:01.986Z,71.50
2018-07-17T06:38:57.121Z,69.00
2018-07-17T06:41:24.797Z,68.80
2018-07-17T06:43:52.393Z,68.20
2018-07-17T06:46:20.051Z,67.80
2018-07-17T06:48:47.626Z,67.90
2018-07-17T06:51:15.306Z,66.80
2018-07-17T06:53:42.880Z,65.10
2018-07-17T06:56:10.489Z,62.40
2018-07-17T06:58:38.089Z,60.00
2018-07-17T07:01:05.689Z,59.60
2018-07-17T07:03:33.279Z,60.10
2018-07-17T07:06:00.865Z,59.20
2018-07-17T07:08:28.422Z,58.00
2018-07-17T07:10:56.021Z,57.20
2018-07-17T07:13:23.637Z,55.30
2018-07-17T07:15:51.204Z,53.90
2018-07-17T07:18:18.769Z,53.20
2018-07-17T07:20:46.358Z,52.70
2018-07-17T07:23:14.074Z,51.90
2018-07-17T07:25:41.711Z,51.00
2018-07-17T07:28:09.287Z,50.20
2018-07-17T07:30:36.889Z,49.70
2018-07-17T07:33:04.941Z,48.70
2018-07-17T07:35:32.594Z,48.20
2018-07-17T07:38:00.167Z,46.20
2018-07-17T07:40:27.734Z,45.60
2018-07-17T07:42:55.414Z,45.70
2018-07-17T07:45:22.928Z,44.90
2018-07-17T07:47:50.592Z,44.30
2018-07-17T07:50:18.234Z,42.40
2018-07-17T07:52:45.918Z,41.50
2018-07-17T07:55:13.561Z,40.00
2018-07-17T07:57:41.184Z,38.90
2018-07-17T08:00:08.815Z,37.00
2018-07-17T08:02:36.453Z,35.50
2018-07-17T08:05:04.125Z,34.20
2018-07-17T08:07:31.830Z,33.50
2018-07-17T08:09:59.501Z,32.60
2018-07-17T08:12:27.141Z,31.20
2018-07-17T08:14:54.766Z,31.20
2018-07-17T08:17:22.393Z,32.20
2018-07-17T08:19:50.011Z,32.00
2018-07-17T08:22:17.634Z,30.30
2018-07-17T08:24:45.418Z,30.10
2018-07-17T08:27:12.993Z,30.00
2018-07-17T08:29:40.536Z,29.40
2018-07-17T08:32:08.461Z,29.90
2018-07-17T08:34:36.024Z,28.90
2018-07-17T08:37:03.643Z,28.90
2018-07-17T08:39:31.205Z,29.20
2018-07-17T08:41:58.871Z,28.60
2018-07-17T08:44:26.542Z,28.80
2018-07-17T08:46:54.138Z,29.40
2018-07-17T08:49:21.757Z,28.70
2018-07-17T08:51:49.361Z,27.70
2018-07-17T08:54:16.965Z,27.30
2018-07-17T08:56:44.605Z,26.80
2018-07-17T08:59:12.500Z,27.40
2018-07-17T09:01:40.197Z,28.10
2018-07-17T09:04:07.824Z,29.10
2018-07-17T09:06:35.424Z,29.60
2018-07-17T09:09:04.123Z,32.50
2018-07-17T09:11:31.746Z,34.30
2018-07-17T09:13:59.294Z,35.90
2018-07-17T09:16:26.948Z,37.20
2018-07-17T09:18:54.579Z,38.90
2018-07-17T09:21:22.387Z,39.20
2018-07-17T09:23:49.930Z,40.10
2018-07-17T09:26:17.646Z,40.40
2018-07-17T09:28:45.531Z,41.80
2018-07-17T09:31:13.146Z,42.80
2018-07-17T09:33:40.855Z,43.80
2018-07-17T09:36:08.399Z,44.20
2018-07-17T09:38:35.984Z,43.50
2018-07-17T09:41:03.620Z,45.50
2018-07-17T09:43:31.192Z,44.60
2018-07-17T09:45:58.761Z,44.30
2018-07-17T09:48:26.380Z,43.10
2018-07-17T09:50:53.954Z,43.70
2018-07-17T09:53:21.590Z,44.30
2018-07-17T09:55:49.225Z,43.80
2018-07-17T09:58:16.993Z,42.90
2018-07-17T10:00:50.488Z,43.10
2018-07-17T10:03:18.054Z,44.30
2018-07-17T10:05:45.640Z,42.70
2018-07-17T10:08:13.253Z,43.40
2018-07-17T10:10:40.938Z,45.00
2018-07-17T10:13:08.568Z,45.30
2018-07-17T10:15:36.307Z,43.70
2018-07-17T10:18:03.909Z,43.00
2018-07-17T10:20:31.501Z,42.80
2018-07-17T10:22:59.138Z,42.60
2018-07-17T10:25:26.790Z,42.20
2018-07-17T10:27:54.568Z,41.60
2018-07-17T10:30:22.206Z,42.40
2018-07-17T10:32:49.822Z,42.30
2018-07-17T10:35:17.463Z,42.40
2018-07-17T10:37:45.136Z,41.70
2018-07-17T10:40:12.780Z,42.50
2018-07-17T10:45:08.101Z,41.00
2018-07-17T10:47:35.757Z,40.90
2018-07-17T10:50:03.285Z,41.10
2018-07-17T10:52:30.954Z,40.40
2018-07-17T10:54:58.593Z,40.60
2018-07-17T10:57:26.205Z,42.20
2018-07-17T10:59:53.849Z,40.80
2018-07-17T11:02:21.679Z,41.60
2018-07-17T11:04:49.332Z,39.20
2018-07-17T11:07:17.029Z,39.80
2018-07-17T11:09:44.645Z,38.80
2018-07-17T11:12:12.280Z,38.90
2018-07-17T11:14:40.057Z,39.00
2018-07-17T11:17:07.709Z,40.40
2018-07-17T11:19:35.358Z,41.00
2018-07-17T11:22:03.125Z,38.80
2018-07-17T11:24:30.704Z,37.60
2018-07-17T11:26:58.377Z,38.90
2018-07-17T11:29:26.083Z,39.30
2018-07-17T11:31:53.712Z,40.60
2018-07-17T11:34:21.235Z,40.00
2018-07-17T11:36:48.857Z,40.60
2018-07-17T11:39:16.433Z,42.50
2018-07-17T11:41:44.061Z,43.90
2018-07-17T11:44:11.641Z,43.90
2018-07-17T11:46:39.257Z,44.00
2018-07-17T11:49:06.835Z,45.30
2018-07-17T11:51:34.476Z,45.60
2018-07-17T11:54:02.035Z,46.10
2018-07-17T11:56:29.684Z,47.00
2018-07-17T11:58:57.338Z,46.90
2018-07-17T12:01:25.267Z,46.60
2018-07-17T12:03:52.826Z,47.00
2018-07-17T12:06:20.519Z,47.10
2018-07-17T12:08:48.138Z,46.10
2018-07-17T12:11:15.754Z,46.00
2018-07-17T12:13:43.372Z,45.00
2018-07-17T12:16:11.093Z,42.10
2018-07-17T12:18:38.655Z,44.10
2018-07-17T12:21:06.281Z,44.90
2018-07-17T12:23:33.856Z,45.50
2018-07-17T12:26:01.454Z,44.70
2018-07-17T12:28:29.099Z,45.00
2018-07-17T12:30:56.756Z,43.60
2018-07-17T12:33:24.493Z,43.10
2018-07-17T12:35:52.104Z,40.90
2018-07-17T12:38:19.768Z,42.10
2018-07-17T12:40:47.473Z,41.60
2018-07-17T12:43:15.122Z,42.10
2018-07-17T12:45:42.923Z,42.40
2018-07-17T12:48:12.304Z,43.30
2018-07-17T12:50:40.978Z,43.40
2018-07-17T12:53:08.739Z,43.30
2018-07-17T12:55:36.387Z,42.40
2018-07-17T12:58:04.201Z,42.20
2018-07-17T13:00:31.790Z,41.50
2018-07-17T13:02:59.369Z,42.80
2018-07-17T13:05:27.121Z,43.70
2018-07-17T13:07:54.717Z,44.40
2018-07-17T13:10:22.377Z,42.00
2018-07-17T13:12:50.064Z,41.50
2018-07-17T13:15:17.817Z,41.40
2018-07-17T13:17:45.469Z,41.00
2018-07-17T13:20:13.174Z,41.20
2018-07-17T13:22:40.803Z,41.80
2018-07-17T13:25:08.406Z,42.30
2018-07-17T13:27:36.035Z,43.00
2018-07-17T13:30:05.437Z,41.70
2018-07-17T13:32:33.155Z,41.70
2018-07-17T13:37:28.451Z,42.00
2018-07-17T13:39:56.050Z,43.30
2018-07-17T13:42:23.802Z,43.00
2018-07-17T13:44:51.428Z,42.70
2018-07-17T13:47:19.026Z,41.60
2018-07-17T13:49:46.701Z,41.60
2018-07-17T13:52:14.335Z,41.70
2018-07-17T13:54:42.014Z,41.20
2018-07-17T13:57:09.954Z,40.60
2018-07-17T13:59:37.570Z,41.10
2018-07-17T14:02:05.852Z,41.90
2018-07-17T14:04:33.466Z,42.50
2018-07-17T14:07:01.198Z,43.90
2018-07-17T14:09:28.786Z,42.60
2018-07-17T14:11:56.459Z,42.60
2018-07-17T14:14:24.077Z,41.80
2018-07-17T14:16:52.144Z,41.00
2018-07-17T14:19:19.755Z,40.70
2018-07-17T14:21:47.363Z,40.70
2018-07-17T14:24:14.926Z,40.50
2018-07-17T14:26:42.608Z,40.10
2018-07-17T14:29:10.250Z,40.70
2018-07-17T14:31:37.886Z,41.10
2018-07-17T14:34:06.600Z,42.90
2018-07-17T14:36:34.227Z,42.50
2018-07-17T14:39:01.884Z,43.20
2018-07-17T14:41:29.542Z,43.00
2018-07-17T14:43:57.138Z,41.50
2018-07-17T14:46:24.757Z,41.50
2018-07-17T14:48:52.495Z,40.50
2018-07-17T14:51:20.104Z,42.00
2018-07-17T14:53:47.700Z,42.60
2018-07-17T14:56:15.382Z,41.70
2018-07-17T14:58:42.945Z,40.90
2018-07-17T15:01:10.515Z,42.00
2018-07-17T15:03:38.137Z,42.60
2018-07-17T15:06:05.765Z,42.40
2018-07-17T15:08:33.350Z,42.70
2018-07-17T15:11:01.025Z,42.60
2018-07-17T15:13:28.652Z,42.30
2018-07-17T15:15:56.364Z,42.90
2018-07-17T15:18:24.123Z,41.40
2018-07-17T15:20:51.845Z,41.50
2018-07-17T15:23:19.448Z,41.20
2018-07-17T15:25:47.116Z,41.50
2018-07-17T15:28:14.779Z,40.10
2018-07-17T15:30:42.402Z,41.60
2018-07-17T15:33:10.037Z,40.30
2018-07-17T15:35:37.834Z,39.60
2018-07-17T15:38:05.806Z,40.00
2018-07-17T15:40:33.506Z,39.40
2018-07-17T15:43:01.134Z,39.40
2018-07-17T15:45:28.855Z,40.10
2018-07-17T15:47:56.565Z,41.30
2018-07-17T15:50:24.345Z,42.40
2018-07-17T15:52:51.969Z,44.00
2018-07-17T15:55:19.711Z,45.00
2018-07-17T15:57:47.374Z,45.70
2018-07-17T16:00:17.259Z,45.60
2018-07-17T16:02:44.923Z,45.90
2018-07-17T16:05:12.571Z,45.90
2018-07-17T16:07:40.774Z,46.10
2018-07-17T16:10:08.663Z,46.50
2018-07-17T16:12:36.489Z,46.10
2018-07-17T16:15:05.198Z,45.00
2018-07-17T16:17:32.892Z,45.30
2018-07-17T16:20:00.490Z,45.30
2018-07-17T16:22:28.248Z,45.70
2018-07-17T16:24:55.962Z,45.90
2018-07-17T16:27:23.681Z,46.00
2018-07-17T16:29:51.492Z,45.80
2018-07-17T16:32:19.183Z,45.80
2018-07-17T16:34:46.908Z,46.10
2018-07-17T16:37:14.565Z,46.00
2018-07-17T16:39:42.351Z,46.80
2018-07-17T16:42:10.048Z,46.30
2018-07-17T16:44:37.672Z,47.00
2018-07-17T16:47:05.408Z,46.90
2018-07-17T16:49:33.057Z,46.90
2018-07-17T16:52:00.672Z,47.50
2018-07-17T16:54:28.460Z,46.30
2018-07-17T16:56:56.116Z,46.40
2018-07-17T16:59:23.734Z,46.40
2018-07-17T17:01:51.412Z,46.30
2018-07-17T17:04:18.995Z,46.50
2018-07-17T17:06:46.852Z,46.00
2018-07-17T17:09:14.496Z,46.20
2018-07-17T17:11:42.480Z,45.90
2018-07-17T17:14:10.092Z,45.50
2018-07-17T17:16:37.836Z,46.50
2018-07-17T17:19:05.790Z,47.40
2018-07-17T17:21:39.479Z,46.00
2018-07-17T17:24:07.151Z,45.20
2018-07-17T17:26:34.738Z,45.80
2018-07-17T17:29:02.427Z,46.20
2018-07-17T17:31:30.001Z,46.60
2018-07-17T17:33:57.619Z,46.90
2018-07-17T17:36:25.291Z,46.50
2018-07-17T17:38:52.830Z,46.80
2018-07-17T17:41:20.445Z,47.10
2018-07-17T17:43:48.161Z,47.80
2018-07-17T17:46:16.013Z,47.70
2018-07-17T17:48:43.561Z,48.40
2018-07-17T17:51:11.264Z,48.70
2018-07-17T17:53:38.951Z,47.00
2018-07-17T17:56:06.600Z,48.20
2018-07-17T17:58:34.217Z,48.60
2018-07-17T18:01:01.826Z,49.00
2018-07-17T18:03:29.449Z,49.20
2018-07-17T18:05:57.073Z,49.40
2018-07-17T18:08:24.769Z,49.60
2018-07-17T18:10:52.309Z,49.20
2018-07-17T18:15:54.366Z,48.80
2018-07-17T18:18:21.998Z,48.60
2018-07-17T18:20:49.602Z,49.10
2018-07-17T18:25:44.788Z,48.80
2018-07-17T18:28:12.368Z,48.20
2018-07-17T18:30:39.990Z,48.10
2018-07-17T18:33:07.782Z,48.30
2018-07-17T18:35:35.330Z,48.50
2018-07-17T18:38:02.938Z,48.50
2018-07-17T18:40:30.622Z,48.30
2018-07-17T18:42:58.210Z,48.10
2018-07-17T18:45:25.796Z,48.10
2018-07-17T18:47:53.408Z,48.50
2018-07-17T18:50:21.044Z,47.90
2018-07-17T18:52:48.782Z,48.20
2018-07-17T18:55:16.452Z,50.00
2018-07-17T18:57:44.174Z,51.50
2018-07-17T19:00:11.792Z,51.50
2018-07-17T19:02:39.436Z,50.60
2018-07-17T19:05:07.120Z,50.50
2018-07-17T19:07:34.720Z,51.00
2018-07-17T19:10:02.330Z,51.50
2018-07-17T19:12:29.965Z,50.90
2018-07-17T19:14:57.681Z,50.90
2018-07-17T19:17:26.009Z,51.50
2018-07-17T19:19:53.632Z,51.50
2018-07-17T19:22:21.236Z,52.30
2018-07-17T19:24:48.902Z,52.90
2018-07-17T19:27:16.612Z,50.90
2018-07-17T19:29:44.212Z,50.50
2018-07-17T19:32:11.836Z,50.60
2018-07-17T19:34:39.498Z,50.70
2018-07-17T19:37:07.125Z,50.70
2018-07-17T19:39:34.792Z,51.40
2018-07-17T19:42:02.322Z,51.00
2018-07-17T19:46:57.715Z,51.20
2018-07-17T19:49:25.342Z,51.80
2018-07-17T19:51:52.947Z,52.00
2018-07-17T19:54:20.665Z,52.30
2018-07-17T19:56:48.291Z,52.90
2018-07-17T19:59:15.935Z,52.90
2018-07-17T20:01:43.725Z,52.80
2018-07-17T20:04:11.367Z,53.90
2018-07-17T20:06:39.332Z,54.90
2018-07-17T20:09:07.605Z,55.80
2018-07-17T20:11:35.246Z,56.70
2018-07-17T20:14:03.136Z,56.80
2018-07-17T20:16:30.767Z,57.10
2018-07-17T20:18:58.444Z,57.40
2018-07-17T20:21:26.197Z,57.60
2018-07-17T20:23:53.891Z,57.90
2018-07-17T20:26:21.516Z,58.10
2018-07-17T20:28:49.407Z,58.20
2018-07-17T20:31:17.571Z,58.50
2018-07-17T20:33:45.186Z,58.80
2018-07-17T20:36:12.781Z,59.30
2018-07-17T20:38:40.397Z,59.70
2018-07-17T20:41:08.120Z,59.70
2018-07-17T20:43:35.776Z,60.10
2018-07-17T20:46:03.692Z,59.30
2018-07-17T20:48:31.418Z,59.70
2018-07-17T20:50:59.020Z,60.30
2018-07-17T20:53:26.810Z,59.50
2018-07-17T20:55:54.502Z,59.50
2018-07-17T20:58:22.149Z,59.80
2018-07-17T21:03:17.301Z,59.20
2018-07-17T21:05:45.005Z,58.80
2018-07-17T21:08:12.654Z,59.00
2018-07-17T21:10:40.266Z,58.80
2018-07-17T21:13:07.873Z,58.80
2018-07-17T21:15:36.348Z,58.20
2018-07-17T21:18:04.060Z,58.20
2018-07-17T21:20:31.594Z,58.30
2018-07-17T21:22:59.238Z,57.80
2018-07-17T21:25:26.977Z,57.70
2018-07-17T21:27:54.557Z,57.60
2018-07-17T21:30:22.167Z,57.20
2018-07-17T21:32:49.788Z,57.30
2018-07-17T21:35:17.410Z,57.30
2018-07-17T21:37:44.998Z,57.60
2018-07-17T21:40:12.603Z,57.60
2018-07-17T21:42:40.220Z,57.60
2018-07-17T21:45:07.995Z,58.00
2018-07-17T21:47:35.620Z,58.40
2018-07-17T21:50:03.365Z,58.90
2018-07-17T21:52:30.988Z,59.20
2018-07-17T21:54:58.586Z,59.50
2018-07-17T21:57:26.141Z,60.00
2018-07-17T21:59:53.808Z,59.80
2018-07-17T22:02:21.506Z,60.00
2018-07-17T22:04:49.069Z,59.80
2018-07-17T22:07:16.709Z,60.00
2018-07-17T22:09:44.320Z,60.50
2018-07-17T22:12:12.037Z,60.40
2018-07-17T22:14:39.727Z,60.50
2018-07-17T22:17:07.302Z,61.00
2018-07-17T22:19:34.948Z,61.50
2018-07-17T22:22:02.589Z,63.00
2018-07-17T22:24:30.361Z,63.70
2018-07-17T22:26:57.939Z,64.10
2018-07-17T22:29:25.573Z,64.20
2018-07-17T22:31:53.166Z,64.30
2018-07-17T22:34:20.886Z,64.30
2018-07-17T22:36:48.579Z,64.10
2018-07-17T22:39:16.125Z,64.00
2018-07-17T22:41:43.755Z,63.60
2018-07-17T22:44:11.436Z,63.20
2018-07-17T22:46:39.007Z,63.30
2018-07-17T22:49:06.591Z,64.60
2018-07-17T22:51:34.350Z,65.60
2018-07-17T22:54:02.097Z,65.00
2018-07-17T22:56:29.703Z,65.20
2018-07-17T23:01:25.271Z,66.00
2018-07-17T23:03:52.869Z,65.80
2018-07-17T23:06:20.488Z,65.70
2018-07-17T23:08:48.147Z,65.70
2018-07-17T23:11:15.917Z,66.10
2018-07-17T23:13:43.570Z,66.20
2018-07-17T23:16:11.157Z,66.30
2018-07-17T23:18:38.971Z,66.40
2018-07-17T23:21:06.623Z,66.60
2018-07-17T23:23:34.641Z,66.90
2018-07-17T23:26:02.341Z,66.80
2018-07-17T23:28:30.103Z,66.90
2018-07-17T23:30:57.686Z,67.10
2018-07-17T23:33:25.279Z,67.30
2018-07-17T23:35:52.984Z,66.80
2018-07-17T23:40:48.283Z,66.70
2018-07-17T23:43:16.016Z,66.80
2018-07-17T23:45:43.653Z,66.90
2018-07-17T23:48:11.280Z,67.20
2018-07-17T23:50:38.902Z,67.70
2018-07-17T23:53:06.537Z,67.60
2018-07-17T23:55:34.245Z,67.90
2018-07-17T23:58:01.850Z,67.00
